aviador You're here:

KARR Decoded Metar

CHICAGO/AURORA in IL, USA
Report Time2017-11-19 20:52:00
UTC Time2017-11-19 21:46:47
Flight Rules vfr VFR
Wind280° at 13 kt
W.Decomp.*RWY 27: 12.8 kt HW 2.5 kt RCW
RWY 33: 8.5 kt HW 9.8 kt LCW
RWY 36: 2.5 kt HW 12.8 kt LCW
W.Rank280° ranks 5
Current wind is above 280° avg. (9.6)
Visibility9999 m
Phenomena:N/A
Clouds:N/A
Expected CloudBase > 3,200 ft AGL from Temp-Dew spread
CeilingNone
Temp01°C (ISA -13)
Dew Point-7°C (56% RH)
AAT-6.5°C
QNH1018 hPa
Density Alt-945 ft
Elevation705 ft
Report Wrong Elevation
Raw Report
KARR 192052Z 28013KT 10SM CLR 01/M07 A3006 RMK AO2 SLP186
T00111067 56007=

Extra information for KARR:More info

Metar Taf Metar & Taf Last 4 Metars F.Rules Stats Wind Profile Meteogram Temp Stats Airport Information Weather charts Add Link Nearby VenuesMetar ALERT Operation Metar Decoded Social comments

AIRNAV info for KARR